sensor_id;sensor_type;location;lat;lon;timestamp;temperature;humidity
14873;DHT22;7528;48.576;19.122;2023-04-25T00:03:56;14.60;82.90
14873;DHT22;7528;48.576;19.122;2023-04-25T00:08:59;14.60;84.00
14873;DHT22;7528;48.576;19.122;2023-04-25T00:14:03;14.50;84.00
14873;DHT22;7528;48.576;19.122;2023-04-25T00:19:07;14.60;82.50
14873;DHT22;7528;48.576;19.122;2023-04-25T00:24:10;14.50;83.30
14873;DHT22;7528;48.576;19.122;2023-04-25T00:29:14;14.40;82.80
14873;DHT22;7528;48.576;19.122;2023-04-25T00:34:17;14.40;82.40
14873;DHT22;7528;48.576;19.122;2023-04-25T00:39:19;14.40;83.50
14873;DHT22;7528;48.576;19.122;2023-04-25T00:44:24;14.40;82.40
14873;DHT22;7528;48.576;19.122;2023-04-25T00:49:27;14.30;82.50
14873;DHT22;7528;48.576;19.122;2023-04-25T00:54:30;14.40;79.90
14873;DHT22;7528;48.576;19.122;2023-04-25T00:59:35;14.30;81.00
14873;DHT22;7528;48.576;19.122;2023-04-25T01:04:38;14.30;80.50
14873;DHT22;7528;48.576;19.122;2023-04-25T01:09:41;14.10;80.40
14873;DHT22;7528;48.576;19.122;2023-04-25T01:14:46;14.20;79.00
14873;DHT22;7528;48.576;19.122;2023-04-25T01:19:49;14.20;77.90
14873;DHT22;7528;48.576;19.122;2023-04-25T01:24:53;14.10;78.00
14873;DHT22;7528;48.576;19.122;2023-04-25T01:29:56;14.00;78.00
14873;DHT22;7528;48.576;19.122;2023-04-25T01:34:59;14.00;77.00
14873;DHT22;7528;48.576;19.122;2023-04-25T01:40:06;14.00;77.90
14873;DHT22;7528;48.576;19.122;2023-04-25T01:45:10;14.00;76.60
14873;DHT22;7528;48.576;19.122;2023-04-25T01:50:14;14.00;77.20
14873;DHT22;7528;48.576;19.122;2023-04-25T01:55:18;14.00;77.40
14873;DHT22;7528;48.576;19.122;2023-04-25T02:00:31;13.90;77.40
14873;DHT22;7528;48.576;19.122;2023-04-25T02:05:37;13.80;78.20
14873;DHT22;7528;48.576;19.122;2023-04-25T02:10:44;13.70;78.70
14873;DHT22;7528;48.576;19.122;2023-04-25T02:15:54;13.60;78.80
14873;DHT22;7528;48.576;19.122;2023-04-25T02:20:59;13.60;80.20
14873;DHT22;7528;48.576;19.122;2023-04-25T02:26:03;13.70;80.00
14873;DHT22;7528;48.576;19.122;2023-04-25T02:31:06;13.70;79.60
14873;DHT22;7528;48.576;19.122;2023-04-25T02:36:09;13.50;80.00
14873;DHT22;7528;48.576;19.122;2023-04-25T02:41:13;13.60;80.20
14873;DHT22;7528;48.576;19.122;2023-04-25T02:46:15;13.50;80.50
14873;DHT22;7528;48.576;19.122;2023-04-25T02:51:18;13.50;81.40
14873;DHT22;7528;48.576;19.122;2023-04-25T02:56:22;13.50;82.00
14873;DHT22;7528;48.576;19.122;2023-04-25T03:01:27;13.50;81.70
14873;DHT22;7528;48.576;19.122;2023-04-25T03:06:29;13.60;82.20
14873;DHT22;7528;48.576;19.122;2023-04-25T03:11:33;13.60;81.20
14873;DHT22;7528;48.576;19.122;2023-04-25T03:16:36;13.60;80.80
14873;DHT22;7528;48.576;19.122;2023-04-25T03:21:38;13.60;80.40
14873;DHT22;7528;48.576;19.122;2023-04-25T03:26:42;13.60;80.40
14873;DHT22;7528;48.576;19.122;2023-04-25T03:31:45;13.60;80.20
14873;DHT22;7528;48.576;19.122;2023-04-25T03:36:48;13.50;80.50
14873;DHT22;7528;48.576;19.122;2023-04-25T03:41:52;13.40;80.00
14873;DHT22;7528;48.576;19.122;2023-04-25T03:46:56;13.50;80.10
14873;DHT22;7528;48.576;19.122;2023-04-25T03:51:59;13.40;80.50
14873;DHT22;7528;48.576;19.122;2023-04-25T03:57:06;13.40;80.90
14873;DHT22;7528;48.576;19.122;2023-04-25T04:02:12;13.40;80.40
14873;DHT22;7528;48.576;19.122;2023-04-25T04:07:16;13.30;80.60
14873;DHT22;7528;48.576;19.122;2023-04-25T04:12:22;13.20;80.60
14873;DHT22;7528;48.576;19.122;2023-04-25T04:17:25;13.00;81.70
14873;DHT22;7528;48.576;19.122;2023-04-25T04:22:28;13.00;81.40
14873;DHT22;7528;48.576;19.122;2023-04-25T04:27:36;13.10;81.60
14873;DHT22;7528;48.576;19.122;2023-04-25T04:32:58;13.00;81.90
14873;DHT22;7528;48.576;19.122;2023-04-25T04:38:02;13.00;82.10
14873;DHT22;7528;48.576;19.122;2023-04-25T04:43:10;13.00;81.70
14873;DHT22;7528;48.576;19.122;2023-04-25T04:48:32;13.10;82.00
14873;DHT22;7528;48.576;19.122;2023-04-25T04:53:53;13.10;80.50
14873;DHT22;7528;48.576;19.122;2023-04-25T04:59:19;13.00;81.30
14873;DHT22;7528;48.576;19.122;2023-04-25T05:04:53;13.00;81.40
14873;DHT22;7528;48.576;19.122;2023-04-25T05:10:22;13.00;82.10
14873;DHT22;7528;48.576;19.122;2023-04-25T05:15:44;12.90;81.60
14873;DHT22;7528;48.576;19.122;2023-04-25T05:21:02;13.00;82.10
14873;DHT22;7528;48.576;19.122;2023-04-25T05:26:33;13.00;81.60
14873;DHT22;7528;48.576;19.122;2023-04-25T05:31:48;12.80;83.10
14873;DHT22;7528;48.576;19.122;2023-04-25T05:36:51;12.80;83.90
14873;DHT22;7528;48.576;19.122;2023-04-25T05:41:54;12.90;83.00
14873;DHT22;7528;48.576;19.122;2023-04-25T05:47:22;13.00;83.20
14873;DHT22;7528;48.576;19.122;2023-04-25T05:52:44;13.10;81.40
14873;DHT22;7528;48.576;19.122;2023-04-25T05:57:59;13.00;82.40
14873;DHT22;7528;48.576;19.122;2023-04-25T06:03:03;13.20;83.10
14873;DHT22;7528;48.576;19.122;2023-04-25T06:08:08;13.30;83.20
14873;DHT22;7528;48.576;19.122;2023-04-25T06:13:12;13.30;82.50
14873;DHT22;7528;48.576;19.122;2023-04-25T06:18:16;13.30;82.50
14873;DHT22;7528;48.576;19.122;2023-04-25T06:23:18;13.40;81.90
14873;DHT22;7528;48.576;19.122;2023-04-25T06:28:33;13.40;82.20
14873;DHT22;7528;48.576;19.122;2023-04-25T06:33:37;13.40;82.90
14873;DHT22;7528;48.576;19.122;2023-04-25T06:38:39;13.40;81.50
14873;DHT22;7528;48.576;19.122;2023-04-25T06:43:42;13.40;82.40
14873;DHT22;7528;48.576;19.122;2023-04-25T06:48:58;13.40;81.60
14873;DHT22;7528;48.576;19.122;2023-04-25T06:54:01;13.50;82.60
14873;DHT22;7528;48.576;19.122;2023-04-25T06:59:13;13.60;82.70
14873;DHT22;7528;48.576;19.122;2023-04-25T07:04:19;13.60;82.30
14873;DHT22;7528;48.576;19.122;2023-04-25T07:09:28;13.60;80.80
14873;DHT22;7528;48.576;19.122;2023-04-25T07:14:31;13.70;80.90
14873;DHT22;7528;48.576;19.122;2023-04-25T07:19:36;13.70;78.00
14873;DHT22;7528;48.576;19.122;2023-04-25T07:24:40;13.80;80.30
14873;DHT22;7528;48.576;19.122;2023-04-25T07:29:45;13.80;81.40
14873;DHT22;7528;48.576;19.122;2023-04-25T07:34:49;13.70;77.50
14873;DHT22;7528;48.576;19.122;2023-04-25T07:39:52;13.70;78.30
14873;DHT22;7528;48.576;19.122;2023-04-25T07:44:54;13.80;77.10
14873;DHT22;7528;48.576;19.122;2023-04-25T07:49:58;13.80;79.10
14873;DHT22;7528;48.576;19.122;2023-04-25T07:55:01;13.90;79.20
14873;DHT22;7528;48.576;19.122;2023-04-25T08:00:16;14.00;78.90
14873;DHT22;7528;48.576;19.122;2023-04-25T08:05:26;14.10;77.70
14873;DHT22;7528;48.576;19.122;2023-04-25T08:10:36;14.10;73.80
14873;DHT22;7528;48.576;19.122;2023-04-25T08:15:39;14.20;73.20
14873;DHT22;7528;48.576;19.122;2023-04-25T08:20:43;14.30;71.90
14873;DHT22;7528;48.576;19.122;2023-04-25T08:25:48;14.40;71.20
14873;DHT22;7528;48.576;19.122;2023-04-25T08:30:54;14.50;70.30
14873;DHT22;7528;48.576;19.122;2023-04-25T08:36:03;14.60;71.80
14873;DHT22;7528;48.576;19.122;2023-04-25T08:41:07;14.80;71.90
14873;DHT22;7528;48.576;19.122;2023-04-25T08:46:09;15.00;71.20
14873;DHT22;7528;48.576;19.122;2023-04-25T08:51:31;15.00;68.00
14873;DHT22;7528;48.576;19.122;2023-04-25T08:56:37;15.00;69.00
14873;DHT22;7528;48.576;19.122;2023-04-25T09:01:40;15.10;68.20
14873;DHT22;7528;48.576;19.122;2023-04-25T09:06:44;15.30;68.50
14873;DHT22;7528;48.576;19.122;2023-04-25T09:11:47;15.30;67.30
14873;DHT22;7528;48.576;19.122;2023-04-25T09:17:00;15.30;67.70
14873;DHT22;7528;48.576;19.122;2023-04-25T09:22:30;15.50;69.90
14873;DHT22;7528;48.576;19.122;2023-04-25T09:27:33;15.60;67.80
14873;DHT22;7528;48.576;19.122;2023-04-25T09:32:43;15.60;68.80
14873;DHT22;7528;48.576;19.122;2023-04-25T09:37:47;15.60;66.40
14873;DHT22;7528;48.576;19.122;2023-04-25T09:43:10;15.70;64.20
14873;DHT22;7528;48.576;19.122;2023-04-25T09:48:17;15.70;64.00
14873;DHT22;7528;48.576;19.122;2023-04-25T09:53:24;15.70;61.90
14873;DHT22;7528;48.576;19.122;2023-04-25T09:58:56;15.80;60.00
14873;DHT22;7528;48.576;19.122;2023-04-25T10:03:59;15.80;59.80
14873;DHT22;7528;48.576;19.122;2023-04-25T10:09:29;16.00;58.90
14873;DHT22;7528;48.576;19.122;2023-04-25T10:14:34;16.30;58.80
14873;DHT22;7528;48.576;19.122;2023-04-25T10:19:37;16.40;59.10
14873;DHT22;7528;48.576;19.122;2023-04-25T10:24:42;16.40;58.30
14873;DHT22;7528;48.576;19.122;2023-04-25T10:29:45;16.50;57.30
14873;DHT22;7528;48.576;19.122;2023-04-25T10:34:48;16.50;58.50
14873;DHT22;7528;48.576;19.122;2023-04-25T10:39:52;16.50;57.60
14873;DHT22;7528;48.576;19.122;2023-04-25T10:45:03;16.50;57.90
14873;DHT22;7528;48.576;19.122;2023-04-25T10:50:08;16.50;58.40
14873;DHT22;7528;48.576;19.122;2023-04-25T10:55:12;16.60;57.60
14873;DHT22;7528;48.576;19.122;2023-04-25T11:00:19;16.50;56.00
14873;DHT22;7528;48.576;19.122;2023-04-25T11:05:26;16.40;56.90
14873;DHT22;7528;48.576;19.122;2023-04-25T11:10:33;16.30;54.80
14873;DHT22;7528;48.576;19.122;2023-04-25T11:15:37;16.10;55.30
14873;DHT22;7528;48.576;19.122;2023-04-25T11:20:43;16.00;55.50
14873;DHT22;7528;48.576;19.122;2023-04-25T11:25:49;16.00;56.90
14873;DHT22;7528;48.576;19.122;2023-04-25T11:30:53;16.00;55.60
14873;DHT22;7528;48.576;19.122;2023-04-25T11:35:56;16.00;55.10
14873;DHT22;7528;48.576;19.122;2023-04-25T11:41:00;16.00;55.30
14873;DHT22;7528;48.576;19.122;2023-04-25T11:46:06;16.10;55.30
14873;DHT22;7528;48.576;19.122;2023-04-25T11:51:08;16.10;54.20
14873;DHT22;7528;48.576;19.122;2023-04-25T11:56:13;16.00;53.70
14873;DHT22;7528;48.576;19.122;2023-04-25T12:01:26;16.10;53.50
14873;DHT22;7528;48.576;19.122;2023-04-25T12:06:29;16.10;54.80
14873;DHT22;7528;48.576;19.122;2023-04-25T12:11:33;16.40;55.00
14873;DHT22;7528;48.576;19.122;2023-04-25T12:16:43;16.60;54.10
14873;DHT22;7528;48.576;19.122;2023-04-25T12:21:46;16.90;53.50
14873;DHT22;7528;48.576;19.122;2023-04-25T12:26:52;17.00;52.50
14873;DHT22;7528;48.576;19.122;2023-04-25T12:31:55;16.90;50.70
14873;DHT22;7528;48.576;19.122;2023-04-25T12:36:58;16.90;52.00
14873;DHT22;7528;48.576;19.122;2023-04-25T12:42:02;16.90;53.00
14873;DHT22;7528;48.576;19.122;2023-04-25T12:47:05;16.60;51.30
14873;DHT22;7528;48.576;19.122;2023-04-25T12:52:07;16.40;52.30
14873;DHT22;7528;48.576;19.122;2023-04-25T12:57:12;16.40;52.80
14873;DHT22;7528;48.576;19.122;2023-04-25T13:02:14;16.50;50.90
14873;DHT22;7528;48.576;19.122;2023-04-25T13:07:17;16.70;48.10
14873;DHT22;7528;48.576;19.122;2023-04-25T13:12:21;17.10;49.00
14873;DHT22;7528;48.576;19.122;2023-04-25T13:17:23;17.30;47.70
14873;DHT22;7528;48.576;19.122;2023-04-25T13:22:26;17.40;47.90
14873;DHT22;7528;48.576;19.122;2023-04-25T13:27:30;17.80;46.30
14873;DHT22;7528;48.576;19.122;2023-04-25T13:32:33;17.90;46.90
14873;DHT22;7528;48.576;19.122;2023-04-25T13:37:37;18.20;44.20
14873;DHT22;7528;48.576;19.122;2023-04-25T13:42:41;18.20;43.60
14873;DHT22;7528;48.576;19.122;2023-04-25T13:47:45;18.20;42.60
14873;DHT22;7528;48.576;19.122;2023-04-25T13:52:47;18.30;42.90
14873;DHT22;7528;48.576;19.122;2023-04-25T13:57:51;18.40;41.30
14873;DHT22;7528;48.576;19.122;2023-04-25T14:02:54;18.30;42.10
14873;DHT22;7528;48.576;19.122;2023-04-25T14:07:57;18.50;42.00
14873;DHT22;7528;48.576;19.122;2023-04-25T14:13:01;18.60;42.60
14873;DHT22;7528;48.576;19.122;2023-04-25T14:18:04;18.50;41.60
14873;DHT22;7528;48.576;19.122;2023-04-25T14:23:06;18.60;41.50
14873;DHT22;7528;48.576;19.122;2023-04-25T14:28:10;18.60;41.40
14873;DHT22;7528;48.576;19.122;2023-04-25T14:33:13;18.60;40.70
14873;DHT22;7528;48.576;19.122;2023-04-25T14:38:15;18.60;40.00
14873;DHT22;7528;48.576;19.122;2023-04-25T14:43:19;18.50;40.10
14873;DHT22;7528;48.576;19.122;2023-04-25T14:48:22;18.40;40.20
14873;DHT22;7528;48.576;19.122;2023-04-25T14:53:25;18.30;40.30
14873;DHT22;7528;48.576;19.122;2023-04-25T14:58:29;18.40;40.60
14873;DHT22;7528;48.576;19.122;2023-04-25T15:03:31;18.40;40.60
14873;DHT22;7528;48.576;19.122;2023-04-25T15:08:34;18.20;40.40
14873;DHT22;7528;48.576;19.122;2023-04-25T15:13:38;18.20;41.10
14873;DHT22;7528;48.576;19.122;2023-04-25T15:18:41;18.20;40.90
14873;DHT22;7528;48.576;19.122;2023-04-25T15:23:43;18.20;39.90
14873;DHT22;7528;48.576;19.122;2023-04-25T15:28:47;18.20;41.50
14873;DHT22;7528;48.576;19.122;2023-04-25T15:33:50;18.20;40.80
14873;DHT22;7528;48.576;19.122;2023-04-25T15:38:53;18.00;39.70
14873;DHT22;7528;48.576;19.122;2023-04-25T15:43:59;17.90;39.20
14873;DHT22;7528;48.576;19.122;2023-04-25T15:49:01;17.80;40.00
14873;DHT22;7528;48.576;19.122;2023-04-25T15:54:04;17.80;41.60
14873;DHT22;7528;48.576;19.122;2023-04-25T15:59:08;17.70;41.30
14873;DHT22;7528;48.576;19.122;2023-04-25T16:04:10;17.50;41.10
14873;DHT22;7528;48.576;19.122;2023-04-25T16:09:13;17.40;40.30
14873;DHT22;7528;48.576;19.122;2023-04-25T16:14:16;17.40;41.80
14873;DHT22;7528;48.576;19.122;2023-04-25T16:19:19;17.50;41.60
14873;DHT22;7528;48.576;19.122;2023-04-25T16:24:21;17.50;42.50
14873;DHT22;7528;48.576;19.122;2023-04-25T16:29:25;17.40;41.80
14873;DHT22;7528;48.576;19.122;2023-04-25T16:34:28;17.30;43.10
14873;DHT22;7528;48.576;19.122;2023-04-25T16:39:31;17.20;42.70
14873;DHT22;7528;48.576;19.122;2023-04-25T16:44:35;17.10;44.00
14873;DHT22;7528;48.576;19.122;2023-04-25T16:49:37;17.10;44.60
14873;DHT22;7528;48.576;19.122;2023-04-25T16:54:41;17.00;42.40
14873;DHT22;7528;48.576;19.122;2023-04-25T16:59:45;16.90;43.30
14873;DHT22;7528;48.576;19.122;2023-04-25T17:04:47;16.80;45.30
14873;DHT22;7528;48.576;19.122;2023-04-25T17:09:50;16.70;46.20
14873;DHT22;7528;48.576;19.122;2023-04-25T17:14:54;16.40;47.10
14873;DHT22;7528;48.576;19.122;2023-04-25T17:19:56;16.40;48.70
14873;DHT22;7528;48.576;19.122;2023-04-25T17:24:59;16.20;49.60
14873;DHT22;7528;48.576;19.122;2023-04-25T17:30:04;16.10;49.90
14873;DHT22;7528;48.576;19.122;2023-04-25T17:35:08;16.00;50.80
14873;DHT22;7528;48.576;19.122;2023-04-25T17:40:11;16.00;49.30
14873;DHT22;7528;48.576;19.122;2023-04-25T17:45:15;15.90;50.50
14873;DHT22;7528;48.576;19.122;2023-04-25T17:50:18;15.80;50.70
14873;DHT22;7528;48.576;19.122;2023-04-25T17:55:20;15.70;51.20
14873;DHT22;7528;48.576;19.122;2023-04-25T18:00:25;15.50;50.90
14873;DHT22;7528;48.576;19.122;2023-04-25T18:05:27;15.40;49.90
14873;DHT22;7528;48.576;19.122;2023-04-25T18:10:30;15.30;50.40
14873;DHT22;7528;48.576;19.122;2023-04-25T18:15:35;15.20;49.80
14873;DHT22;7528;48.576;19.122;2023-04-25T18:20:37;15.20;49.70
14873;DHT22;7528;48.576;19.122;2023-04-25T18:25:40;15.10;51.00
14873;DHT22;7528;48.576;19.122;2023-04-25T18:30:44;15.00;51.30
14873;DHT22;7528;48.576;19.122;2023-04-25T18:35:47;14.90;52.10
14873;DHT22;7528;48.576;19.122;2023-04-25T18:40:50;14.70;52.30
14873;DHT22;7528;48.576;19.122;2023-04-25T18:45:54;14.60;53.50
14873;DHT22;7528;48.576;19.122;2023-04-25T18:50:56;14.40;53.50
14873;DHT22;7528;48.576;19.122;2023-04-25T18:55:59;14.40;52.90
14873;DHT22;7528;48.576;19.122;2023-04-25T19:01:03;14.30;54.60
14873;DHT22;7528;48.576;19.122;2023-04-25T19:06:05;14.20;54.50
14873;DHT22;7528;48.576;19.122;2023-04-25T19:11:08;14.10;54.40
14873;DHT22;7528;48.576;19.122;2023-04-25T19:16:12;14.00;54.10
14873;DHT22;7528;48.576;19.122;2023-04-25T19:21:15;14.00;55.00
14873;DHT22;7528;48.576;19.122;2023-04-25T19:26:17;13.90;54.30
14873;DHT22;7528;48.576;19.122;2023-04-25T19:31:22;13.80;54.50
14873;DHT22;7528;48.576;19.122;2023-04-25T19:36:24;13.70;55.40
14873;DHT22;7528;48.576;19.122;2023-04-25T19:41:27;13.60;56.50
14873;DHT22;7528;48.576;19.122;2023-04-25T19:46:32;13.50;57.50
14873;DHT22;7528;48.576;19.122;2023-04-25T19:51:35;13.40;57.80
14873;DHT22;7528;48.576;19.122;2023-04-25T19:56:38;13.40;57.90
14873;DHT22;7528;48.576;19.122;2023-04-25T20:01:41;13.20;58.20
14873;DHT22;7528;48.576;19.122;2023-04-25T20:06:44;13.10;58.30
14873;DHT22;7528;48.576;19.122;2023-04-25T20:11:47;13.00;59.10
14873;DHT22;7528;48.576;19.122;2023-04-25T20:16:51;12.90;59.10
14873;DHT22;7528;48.576;19.122;2023-04-25T20:21:53;12.80;59.30
14873;DHT22;7528;48.576;19.122;2023-04-25T20:26:56;12.60;59.80
14873;DHT22;7528;48.576;19.122;2023-04-25T20:32:00;12.50;60.30
14873;DHT22;7528;48.576;19.122;2023-04-25T20:37:03;12.40;60.30
14873;DHT22;7528;48.576;19.122;2023-04-25T20:42:05;12.30;60.80
14873;DHT22;7528;48.576;19.122;2023-04-25T20:47:09;12.20;61.40
14873;DHT22;7528;48.576;19.122;2023-04-25T20:52:12;12.20;61.40
14873;DHT22;7528;48.576;19.122;2023-04-25T20:57:15;12.20;61.90
14873;DHT22;7528;48.576;19.122;2023-04-25T21:02:19;12.10;62.00
14873;DHT22;7528;48.576;19.122;2023-04-25T21:07:22;12.10;62.20
14873;DHT22;7528;48.576;19.122;2023-04-25T21:12:24;12.00;62.20
14873;DHT22;7528;48.576;19.122;2023-04-25T21:17:28;11.90;62.50
14873;DHT22;7528;48.576;19.122;2023-04-25T21:22:31;11.80;62.40
14873;DHT22;7528;48.576;19.122;2023-04-25T21:27:34;11.80;62.50
14873;DHT22;7528;48.576;19.122;2023-04-25T21:32:39;11.70;63.10
14873;DHT22;7528;48.576;19.122;2023-04-25T21:37:43;11.70;63.20
14873;DHT22;7528;48.576;19.122;2023-04-25T21:42:46;11.60;63.10
14873;DHT22;7528;48.576;19.122;2023-04-25T21:47:54;11.50;63.60
14873;DHT22;7528;48.576;19.122;2023-04-25T21:52:57;11.50;63.90
14873;DHT22;7528;48.576;19.122;2023-04-25T21:57:59;11.40;64.00
14873;DHT22;7528;48.576;19.122;2023-04-25T22:03:03;11.40;64.90
14873;DHT22;7528;48.576;19.122;2023-04-25T22:08:06;11.40;64.50
14873;DHT22;7528;48.576;19.122;2023-04-25T22:13:08;11.40;64.40
14873;DHT22;7528;48.576;19.122;2023-04-25T22:18:12;11.30;64.80
14873;DHT22;7528;48.576;19.122;2023-04-25T22:23:16;11.30;64.70
14873;DHT22;7528;48.576;19.122;2023-04-25T22:28:18;11.20;65.10
14873;DHT22;7528;48.576;19.122;2023-04-25T22:33:22;11.10;65.00
14873;DHT22;7528;48.576;19.122;2023-04-25T22:38:25;11.10;65.60
14873;DHT22;7528;48.576;19.122;2023-04-25T22:43:28;11.10;65.90
14873;DHT22;7528;48.576;19.122;2023-04-25T22:48:32;11.10;65.50
14873;DHT22;7528;48.576;19.122;2023-04-25T22:53:35;11.00;66.00
14873;DHT22;7528;48.576;19.122;2023-04-25T22:58:40;11.00;65.80
14873;DHT22;7528;48.576;19.122;2023-04-25T23:03:44;10.90;65.60
14873;DHT22;7528;48.576;19.122;2023-04-25T23:08:47;10.90;65.50
14873;DHT22;7528;48.576;19.122;2023-04-25T23:13:50;11.00;65.30
14873;DHT22;7528;48.576;19.122;2023-04-25T23:18:53;11.00;65.10
14873;DHT22;7528;48.576;19.122;2023-04-25T23:23:56;11.00;64.70
14873;DHT22;7528;48.576;19.122;2023-04-25T23:28:58;11.00;65.90
14873;DHT22;7528;48.576;19.122;2023-04-25T23:34:02;10.90;66.50
14873;DHT22;7528;48.576;19.122;2023-04-25T23:39:07;10.90;67.80
14873;DHT22;7528;48.576;19.122;2023-04-25T23:44:12;10.90;67.70
14873;DHT22;7528;48.576;19.122;2023-04-25T23:49:16;10.90;67.80
14873;DHT22;7528;48.576;19.122;2023-04-25T23:54:18;11.00;67.80
14873;DHT22;7528;48.576;19.122;2023-04-25T23:59:21;10.90;67.20
